Time;durP1;ratioP1;P1;durP2;ratioP2;P2;SDS_P1;SDS_P2;PMS_P1;PMS_P2;Temp;Humidity;BMP_temperature;BMP_pressure;BME280_temperature;BME280_humidity;BME280_pressure;Samples;Min_cycle;Max_cycle;Signal;HPM_P1;HPM_P2
2023/05/07 00:01:14;;;;;;;14.10;8.18;;;19.10;87.60;;;;;;5074459;28;20040;-70
2023/05/07 00:03:40;;;;;;;13.35;8.18;;;19.00;87.30;;;;;;5074339;28;20027;-69
2023/05/07 00:06:05;;;;;;;23.13;8.95;;;19.00;87.10;;;;;;5073684;28;20029;-68
2023/05/07 00:08:31;;;;;;;12.52;7.68;;;19.00;87.50;;;;;;5074600;28;20025;-68
2023/05/07 00:10:57;;;;;;;10.77;6.85;;;18.90;87.20;;;;;;5074343;28;20067;-68
2023/05/07 00:13:23;;;;;;;13.95;7.88;;;18.90;87.00;;;;;;5074311;28;20047;-69
2023/05/07 00:15:48;;;;;;;12.23;7.55;;;18.90;86.80;;;;;;5074342;28;20127;-68
2023/05/07 00:18:14;;;;;;;7.88;6.53;;;18.90;86.80;;;;;;5074060;28;20055;-68
2023/05/07 00:20:40;;;;;;;12.35;7.80;;;18.80;86.70;;;;;;5073801;28;20038;-68
2023/05/07 00:23:05;;;;;;;9.85;7.82;;;18.80;86.80;;;;;;5073992;28;20101;-68
2023/05/07 00:25:31;;;;;;;10.05;7.45;;;18.80;86.80;;;;;;5073855;28;20020;-68
2023/05/07 00:28:02;;;;;;;7.97;7.18;;;18.80;87.00;;;;;;5073781;28;20025;-69
2023/05/07 00:30:28;;;;;;;9.38;7.15;;;18.70;86.90;;;;;;5073762;28;20032;-69
2023/05/07 00:32:54;;;;;;;8.65;7.20;;;18.70;87.30;;;;;;5073898;28;20431;-68
2023/05/07 00:35:19;;;;;;;9.55;7.35;;;18.70;87.10;;;;;;5073412;28;20024;-69
2023/05/07 00:37:45;;;;;;;10.25;7.20;;;18.70;86.90;;;;;;5074125;28;20016;-68
2023/05/07 00:40:11;;;;;;;7.78;6.80;;;18.70;87.40;;;;;;5074212;28;20032;-68
2023/05/07 00:42:37;;;;;;;10.73;7.85;;;18.60;87.60;;;;;;5074293;28;20108;-68
2023/05/07 00:45:04;;;;;;;7.78;6.75;;;18.60;87.50;;;;;;5074374;28;20396;-69
2023/05/07 00:47:30;;;;;;;9.52;7.53;;;18.50;87.90;;;;;;5074223;28;20020;-69
2023/05/07 00:53:40;;;;;;;8.95;7.40;;;18.40;89.00;;;;;;5031431;28;20549;-68
2023/05/07 01:00:31;;;;;;;12.80;7.63;;;18.30;89.10;;;;;;4949895;28;20686;-69
2023/05/07 01:03:15;;;;;;;9.80;7.20;;;18.30;88.90;;;;;;4871599;29;20033;-68
2023/05/07 01:06:12;;;;;;;9.27;7.20;;;18.40;88.90;;;;;;4893629;29;20066;-69
2023/05/07 01:12:24;;;;;;;9.52;8.35;;;18.30;89.50;;;;;;4878856;29;20132;-68
2023/05/07 01:15:11;;;;;;;8.05;7.10;;;18.30;89.80;;;;;;4895730;29;20374;-68
2023/05/07 01:17:42;;;;;;;11.90;6.88;;;18.30;90.10;;;;;;4895173;29;20112;-68
2023/05/07 01:20:10;;;;;;;9.63;6.95;;;18.30;89.60;;;;;;4965918;28;20049;-69
2023/05/07 01:22:37;;;;;;;8.73;6.72;;;18.30;89.00;;;;;;5052909;28;20112;-69
2023/05/07 01:25:05;;;;;;;10.32;7.40;;;18.20;88.70;;;;;;5052902;28;20431;-69
2023/05/07 01:27:31;;;;;;;10.30;6.88;;;18.20;88.60;;;;;;5052353;28;20390;-69
2023/05/07 01:29:56;;;;;;;8.63;7.22;;;18.20;88.90;;;;;;5052886;28;20028;-69
2023/05/07 01:33:07;;;;;;;8.80;6.55;;;18.20;89.30;;;;;;5034950;28;20025;-68
2023/05/07 01:35:43;;;;;;;11.90;7.47;;;18.20;89.00;;;;;;5050111;28;20045;-68
2023/05/07 01:38:09;;;;;;;9.55;6.93;;;18.20;88.90;;;;;;5052535;28;20108;-69
2023/05/07 01:40:35;;;;;;;7.10;6.40;;;18.20;88.70;;;;;;5052590;28;20037;-69
2023/05/07 01:43:02;;;;;;;8.48;6.65;;;18.10;88.20;;;;;;5052782;28;20032;-68
2023/05/07 01:45:30;;;;;;;11.98;6.78;;;18.10;88.00;;;;;;5052404;28;20021;-69
2023/05/07 01:47:58;;;;;;;9.45;7.13;;;18.10;88.00;;;;;;5052750;28;20040;-68
2023/05/07 01:50:25;;;;;;;7.63;6.40;;;18.10;88.00;;;;;;5052472;28;20028;-68
2023/05/07 01:52:51;;;;;;;18.80;6.88;;;18.00;87.80;;;;;;5052549;28;20534;-68
2023/05/07 01:55:18;;;;;;;9.13;5.82;;;18.00;87.70;;;;;;5052693;28;20550;-68
2023/05/07 01:57:43;;;;;;;9.23;6.30;;;18.00;87.70;;;;;;5052593;28;20027;-68
2023/05/07 02:00:09;;;;;;;6.93;6.22;;;18.00;87.60;;;;;;5052326;28;20033;-68
2023/05/07 02:02:35;;;;;;;6.70;5.97;;;17.90;88.30;;;;;;5052605;28;20033;-69
2023/05/07 02:05:01;;;;;;;7.75;5.90;;;17.90;88.70;;;;;;5052349;28;20040;-69
2023/05/07 02:07:27;;;;;;;7.32;6.05;;;17.80;89.00;;;;;;5052444;28;20025;-69
2023/05/07 02:09:55;;;;;;;8.95;6.10;;;17.80;88.60;;;;;;5034757;28;20025;-69
2023/05/07 02:12:21;;;;;;;10.65;6.32;;;17.80;88.90;;;;;;5052498;28;20032;-68
2023/05/07 02:14:47;;;;;;;8.30;5.50;;;17.80;88.80;;;;;;5052412;28;20025;-69
2023/05/07 02:17:13;;;;;;;6.35;5.75;;;17.80;88.70;;;;;;5052126;28;20025;-69
2023/05/07 02:19:39;;;;;;;6.25;5.65;;;17.70;88.70;;;;;;5052130;28;20104;-69
2023/05/07 02:22:05;;;;;;;9.00;6.00;;;17.70;89.40;;;;;;5052808;28;20025;-68
2023/05/07 02:24:30;;;;;;;6.22;5.63;;;17.70;89.20;;;;;;5053035;28;20354;-68
2023/05/07 02:26:56;;;;;;;7.18;5.57;;;17.60;89.00;;;;;;5052953;28;20078;-69
2023/05/07 02:42:50;;;;;;;13.13;5.93;;;17.60;88.00;;;;;;5088293;27;20905;-67
2023/05/07 02:45:16;;;;;;;15.38;6.22;;;17.70;87.60;;;;;;5089756;28;20025;-66
2023/05/07 02:47:42;;;;;;;11.95;5.57;;;17.80;87.40;;;;;;5089997;28;20035;-66
2023/05/07 02:50:08;;;;;;;7.38;5.60;;;17.70;87.20;;;;;;5089957;28;20025;-68
2023/05/07 02:52:33;;;;;;;8.20;5.07;;;17.70;87.20;;;;;;5089952;28;20067;-66
2023/05/07 02:54:59;;;;;;;8.63;5.40;;;17.60;87.90;;;;;;5088819;28;20024;-67
2023/05/07 02:57:25;;;;;;;6.18;5.15;;;17.50;88.00;;;;;;5089460;28;20088;-67
2023/05/07 02:59:51;;;;;;;7.65;5.82;;;17.50;88.20;;;;;;5089708;28;20024;-67
2023/05/07 03:02:17;;;;;;;10.38;6.32;;;17.50;88.30;;;;;;5089878;28;20028;-66
2023/05/07 03:04:43;;;;;;;9.02;6.30;;;17.50;88.40;;;;;;5089331;28;20361;-67
2023/05/07 03:07:09;;;;;;;9.10;6.00;;;17.40;88.40;;;;;;5089372;28;20052;-66
2023/05/07 03:09:34;;;;;;;7.90;6.07;;;17.40;88.50;;;;;;5090250;28;20103;-66
2023/05/07 03:12:01;;;;;;;10.55;6.50;;;17.40;88.50;;;;;;5089913;28;20115;-66
2023/05/07 03:14:27;;;;;;;11.07;6.47;;;17.40;88.60;;;;;;5090095;28;20017;-67
2023/05/07 03:16:53;;;;;;;10.32;6.75;;;17.30;88.60;;;;;;5090164;28;20116;-66
2023/05/07 03:19:19;;;;;;;8.45;6.80;;;17.40;88.60;;;;;;5089941;28;20100;-66
2023/05/07 03:21:48;;;;;;;10.18;6.38;;;17.30;88.50;;;;;;5089883;28;20489;-66
2023/05/07 03:24:23;;;;;;;8.60;5.95;;;17.30;88.50;;;;;;5089742;28;20021;-66
2023/05/07 03:27:39;;;;;;;8.35;6.15;;;17.30;88.70;;;;;;5089088;28;20027;-66
2023/05/07 03:30:40;;;;;;;10.93;6.07;;;17.20;88.50;;;;;;5089382;28;20501;-66
2023/05/07 03:34:04;;;;;;;8.52;5.90;;;17.20;88.80;;;;;;5089428;28;20081;-67
2023/05/07 03:36:53;;;;;;;10.65;6.50;;;17.10;88.60;;;;;;4968350;28;20405;-67
2023/05/07 03:39:22;;;;;;;10.50;6.30;;;17.00;88.90;;;;;;4959631;28;20135;-66
2023/05/07 03:45:35;;;;;;;8.50;6.05;;;17.00;89.20;;;;;;4933842;29;20042;-66
2023/05/07 03:48:01;;;;;;;7.47;6.00;;;16.90;89.10;;;;;;4955089;28;20031;-66
2023/05/07 03:50:27;;;;;;;12.77;6.22;;;16.90;89.30;;;;;;4955176;28;20035;-67
2023/05/07 03:52:53;;;;;;;9.20;6.28;;;16.90;89.50;;;;;;4973778;28;20041;-67
2023/05/07 03:55:19;;;;;;;7.18;5.55;;;16.80;89.60;;;;;;5075083;28;20031;-67
2023/05/07 03:57:45;;;;;;;9.68;5.75;;;16.80;89.80;;;;;;5075445;28;20020;-67
2023/05/07 04:00:11;;;;;;;10.50;5.88;;;16.80;90.00;;;;;;5075030;28;20052;-66
2023/05/07 04:02:37;;;;;;;9.50;6.25;;;16.70;89.90;;;;;;5075253;28;20060;-67
2023/05/07 04:05:03;;;;;;;8.02;5.65;;;16.70;90.10;;;;;;5075328;28;20056;-67
2023/05/07 04:07:29;;;;;;;7.35;5.88;;;16.70;90.10;;;;;;5074923;28;20032;-67
2023/05/07 04:09:55;;;;;;;7.05;6.35;;;16.70;90.10;;;;;;5075036;28;20048;-67
2023/05/07 04:12:20;;;;;;;8.05;7.22;;;16.70;90.20;;;;;;5074924;28;20085;-67
2023/05/07 04:14:46;;;;;;;8.15;7.28;;;16.70;90.20;;;;;;5074961;28;20029;-66
2023/05/07 04:17:12;;;;;;;11.27;7.63;;;16.70;90.30;;;;;;5074607;28;20037;-67
2023/05/07 04:19:38;;;;;;;14.88;7.45;;;16.70;90.40;;;;;;5074720;28;20103;-67
2023/05/07 04:22:03;;;;;;;12.38;7.07;;;16.70;90.70;;;;;;5074507;28;20028;-66
2023/05/07 04:24:32;;;;;;;10.55;7.05;;;16.70;90.40;;;;;;5074629;28;20016;-67
2023/05/07 04:26:58;;;;;;;8.57;7.13;;;16.70;90.70;;;;;;5074584;28;20474;-67
2023/05/07 04:29:24;;;;;;;10.88;7.13;;;16.70;90.60;;;;;;5074374;28;20028;-67
2023/05/07 04:31:50;;;;;;;8.98;7.22;;;16.80;90.80;;;;;;5074760;28;20039;-67
2023/05/07 04:34:16;;;;;;;9.10;6.65;;;16.80;90.70;;;;;;5074560;28;20020;-66
2023/05/07 04:36:42;;;;;;;8.90;6.65;;;16.80;90.60;;;;;;5074266;28;20099;-67
2023/05/07 04:39:08;;;;;;;11.57;6.18;;;16.90;90.70;;;;;;5074365;28;20390;-67
2023/05/07 04:41:36;;;;;;;7.93;6.03;;;16.90;90.70;;;;;;5072787;28;20083;-67
2023/05/07 04:44:04;;;;;;;9.65;5.57;;;16.90;90.80;;;;;;5074299;28;20024;-67
2023/05/07 04:46:30;;;;;;;12.10;5.80;;;16.90;90.70;;;;;;5074050;28;20028;-67
2023/05/07 04:48:56;;;;;;;7.22;5.57;;;17.00;90.70;;;;;;5074275;28;20013;-67
2023/05/07 04:51:21;;;;;;;8.10;5.70;;;17.00;90.60;;;;;;5074293;28;20043;-68
2023/05/07 04:53:48;;;;;;;6.50;5.18;;;17.00;90.50;;;;;;5073934;28;20045;-69
2023/05/07 04:56:14;;;;;;;6.25;5.50;;;17.10;90.50;;;;;;5074516;28;20067;-67
2023/05/07 04:58:40;;;;;;;9.45;5.47;;;17.10;90.50;;;;;;5074594;28;20044;-67
2023/05/07 05:01:07;;;;;;;6.00;5.40;;;17.10;90.40;;;;;;5074445;28;20033;-68
2023/05/07 05:04:25;;;;;;;7.60;5.28;;;17.10;90.50;;;;;;5074432;28;20021;-67
2023/05/07 05:10:25;;;;;;;9.57;5.53;;;17.20;90.40;;;;;;4935757;29;20057;-68
2023/05/07 05:13:00;;;;;;;7.28;5.32;;;17.20;90.40;;;;;;4953868;28;20149;-67
2023/05/07 05:18:54;;;;;;;8.00;5.65;;;17.20;90.70;;;;;;4934255;29;20051;-67
2023/05/07 05:21:53;;;;;;;8.52;5.70;;;17.20;90.80;;;;;;4934430;29;20457;-68
2023/05/07 05:24:52;;;;;;;7.22;5.60;;;17.20;90.80;;;;;;4980221;28;20038;-67
2023/05/07 05:27:21;;;;;;;12.40;5.95;;;17.20;90.80;;;;;;5011570;28;20133;-67
2023/05/07 05:29:47;;;;;;;7.32;4.65;;;17.20;90.80;;;;;;5011649;28;20424;-67
2023/05/07 05:32:13;;;;;;;4.72;4.05;;;17.30;90.90;;;;;;5034259;28;20048;-67
2023/05/07 05:34:39;;;;;;;5.43;3.65;;;17.30;90.80;;;;;;5073084;28;20419;-68
2023/05/07 05:37:05;;;;;;;7.35;3.47;;;17.40;90.70;;;;;;5073035;28;20055;-67
2023/05/07 05:39:31;;;;;;;5.22;3.22;;;17.50;90.60;;;;;;5073228;28;20025;-67
2023/05/07 05:41:56;;;;;;;7.53;3.42;;;17.50;90.50;;;;;;5072915;28;20056;-67
2023/05/07 05:44:22;;;;;;;4.70;3.20;;;17.60;90.30;;;;;;5073067;28;20021;-67
2023/05/07 05:46:49;;;;;;;6.97;3.10;;;17.70;90.40;;;;;;5072345;28;20031;-67
2023/05/07 05:49:15;;;;;;;6.45;3.35;;;17.70;90.00;;;;;;5072810;28;20359;-68
2023/05/07 05:51:41;;;;;;;6.05;3.13;;;17.90;90.00;;;;;;5072839;28;20038;-67
2023/05/07 05:54:06;;;;;;;6.90;5.35;;;18.00;89.90;;;;;;5072908;28;20028;-68
2023/05/07 05:56:33;;;;;;;8.70;5.25;;;18.00;90.70;;;;;;5072814;28;20020;-67
2023/05/07 05:58:58;;;;;;;6.85;5.18;;;18.00;90.70;;;;;;5072690;28;20036;-68
2023/05/07 06:01:24;;;;;;;6.80;5.72;;;18.10;90.90;;;;;;5072961;28;20082;-68
2023/05/07 06:03:50;;;;;;;7.10;5.45;;;18.10;90.80;;;;;;5072940;28;20028;-67
2023/05/07 06:06:16;;;;;;;5.72;5.13;;;18.20;90.90;;;;;;5072495;28;20099;-68
2023/05/07 06:08:42;;;;;;;10.98;4.90;;;18.20;90.90;;;;;;5072848;28;20029;-67
2023/05/07 06:11:08;;;;;;;6.55;4.90;;;18.30;91.00;;;;;;5072747;28;20032;-67
2023/05/07 06:13:34;;;;;;;7.43;4.55;;;18.30;90.90;;;;;;5072767;28;20036;-67
2023/05/07 06:15:59;;;;;;;10.77;4.47;;;18.30;90.80;;;;;;5072929;28;20071;-67
2023/05/07 06:18:25;;;;;;;5.88;4.40;;;18.30;90.90;;;;;;5072943;28;20142;-67
2023/05/07 06:20:52;;;;;;;5.97;4.40;;;18.30;91.00;;;;;;5072628;28;20017;-67
2023/05/07 06:23:18;;;;;;;5.82;4.15;;;18.30;90.90;;;;;;5072514;28;20021;-68
2023/05/07 06:25:51;;;;;;;6.97;4.93;;;18.30;90.80;;;;;;5072568;28;20025;-66
2023/05/07 06:28:17;;;;;;;5.63;4.70;;;18.30;90.60;;;;;;5072615;28;20039;-67
2023/05/07 06:30:42;;;;;;;5.20;4.10;;;18.30;90.90;;;;;;5072473;28;20036;-66
2023/05/07 06:33:08;;;;;;;6.28;4.13;;;18.30;90.60;;;;;;5073091;28;20070;-68
2023/05/07 06:35:34;;;;;;;8.63;3.90;;;18.30;90.40;;;;;;5073063;28;20051;-67
2023/05/07 06:38:01;;;;;;;4.80;3.70;;;18.40;89.90;;;;;;5073018;28;20056;-65
2023/05/07 06:40:27;;;;;;;6.05;4.38;;;18.40;89.70;;;;;;5072659;28;20074;-67
2023/05/07 06:42:56;;;;;;;8.95;4.15;;;18.50;89.90;;;;;;5073000;28;20044;-67
2023/05/07 06:45:59;;;;;;;4.50;3.85;;;18.50;90.20;;;;;;5072840;28;20024;-69
2023/05/07 06:52:12;;;;;;;5.72;3.90;;;18.70;88.70;;;;;;5050469;28;20059;-68
2023/05/07 06:54:38;;;;;;;5.63;4.10;;;18.80;88.80;;;;;;5050326;28;20461;-67
2023/05/07 06:57:31;;;;;;;7.22;3.80;;;18.90;88.80;;;;;;5065824;28;20067;-67
2023/05/07 07:03:12;;;;;;;5.88;3.90;;;19.00;88.60;;;;;;5060710;28;20047;-67
2023/05/07 07:05:37;;;;;;;4.60;3.75;;;19.10;88.60;;;;;;5071802;28;20099;-67
2023/05/07 07:08:03;;;;;;;5.72;4.18;;;19.20;88.60;;;;;;5072373;28;20056;-66
2023/05/07 07:10:30;;;;;;;5.88;3.88;;;19.20;88.50;;;;;;5072176;28;20051;-67
2023/05/07 07:12:56;;;;;;;8.98;4.13;;;19.30;88.50;;;;;;5072303;28;20081;-67
2023/05/07 07:15:22;;;;;;;7.35;3.75;;;19.30;88.40;;;;;;5072214;28;20100;-67
2023/05/07 07:17:48;;;;;;;5.63;3.60;;;19.40;88.60;;;;;;5073786;28;20025;-68
2023/05/07 07:20:14;;;;;;;8.18;3.28;;;19.50;88.20;;;;;;5076077;28;20017;-67
2023/05/07 07:22:40;;;;;;;5.82;3.22;;;19.60;88.10;;;;;;5074718;28;20163;-67
2023/05/07 07:25:06;;;;;;;5.53;3.42;;;19.70;87.30;;;;;;5075599;28;20036;-68
2023/05/07 07:27:32;;;;;;;4.72;3.25;;;19.70;86.40;;;;;;5075935;28;20036;-69
2023/05/07 07:29:58;;;;;;;7.70;2.97;;;19.80;85.40;;;;;;5075881;28;20024;-67
2023/05/07 07:32:23;;;;;;;3.20;2.60;;;19.90;85.20;;;;;;5074494;28;20040;-68
2023/05/07 07:34:49;;;;;;;5.65;3.22;;;20.00;84.20;;;;;;5075819;28;20021;-67
2023/05/07 07:37:15;;;;;;;3.85;2.88;;;20.00;83.30;;;;;;5075597;28;20509;-67
2023/05/07 07:39:41;;;;;;;5.15;3.72;;;20.10;83.30;;;;;;5075617;28;20013;-67
2023/05/07 07:42:06;;;;;;;7.65;3.67;;;20.20;85.60;;;;;;5075545;28;20115;-67
2023/05/07 07:44:32;;;;;;;5.50;3.55;;;20.20;85.80;;;;;;5075578;28;20063;-67
2023/05/07 07:46:58;;;;;;;10.93;3.47;;;20.30;85.80;;;;;;5075478;28;20051;-67
2023/05/07 07:49:24;;;;;;;6.88;3.70;;;20.30;85.40;;;;;;5075093;28;20020;-67
2023/05/07 07:51:50;;;;;;;8.32;3.47;;;20.40;85.40;;;;;;5075437;28;20044;-67
2023/05/07 07:54:16;;;;;;;4.25;3.38;;;20.40;85.40;;;;;;5075515;28;20104;-67
2023/05/07 07:56:42;;;;;;;5.20;3.38;;;20.50;85.40;;;;;;5075244;28;20062;-67
2023/05/07 07:59:08;;;;;;;4.47;3.53;;;20.60;85.40;;;;;;5075141;28;20021;-67
2023/05/07 08:01:34;;;;;;;7.10;3.83;;;20.70;85.10;;;;;;5075354;28;20103;-67
2023/05/07 08:04:00;;;;;;;7.80;3.42;;;20.70;85.60;;;;;;5075244;28;20533;-67
2023/05/07 08:06:26;;;;;;;6.88;3.90;;;20.80;85.20;;;;;;5075266;28;20032;-67
2023/05/07 08:08:52;;;;;;;4.90;3.40;;;20.90;85.30;;;;;;5075049;28;20025;-67
2023/05/07 08:11:18;;;;;;;4.13;3.50;;;20.90;84.20;;;;;;5075074;28;20043;-67
2023/05/07 08:13:45;;;;;;;5.63;3.53;;;21.00;83.60;;;;;;5075193;28;20378;-67
2023/05/07 08:16:11;;;;;;;4.97;3.80;;;21.10;83.10;;;;;;5075116;28;20496;-67
2023/05/07 08:18:36;;;;;;;3.95;3.53;;;21.20;82.90;;;;;;5075115;28;20021;-67
2023/05/07 08:21:02;;;;;;;6.78;4.13;;;21.30;82.90;;;;;;5075540;28;20025;-67
2023/05/07 08:23:28;;;;;;;7.43;3.80;;;21.30;82.40;;;;;;5075686;28;20009;-67
2023/05/07 08:25:54;;;;;;;7.90;3.35;;;21.40;81.80;;;;;;5075464;28;20528;-67
2023/05/07 08:28:21;;;;;;;6.60;3.70;;;21.40;81.40;;;;;;5075232;28;20627;-67
2023/05/07 08:31:11;;;;;;;7.60;3.40;;;21.60;80.60;;;;;;5075046;28;20037;-67
2023/05/07 08:36:34;;;;;;;4.95;3.25;;;21.70;79.90;;;;;;5067138;28;20032;-67
2023/05/07 08:39:03;;;;;;;5.95;3.13;;;21.80;78.50;;;;;;5073858;28;20073;-67
2023/05/07 08:41:35;;;;;;;3.20;2.90;;;21.90;78.20;;;;;;5074448;28;20095;-67
2023/05/07 08:44:14;;;;;;;;;;;21.90;77.90;;;;;;5075249;28;20427;-67
2023/05/07 08:47:02;;;;;;;5.40;2.75;;;22.00;76.40;;;;;;5074511;28;19908;-67
2023/05/07 08:49:37;;;;;;;6.63;2.70;;;22.10;76.80;;;;;;5074251;28;20103;-67
2023/05/07 08:52:15;;;;;;;2.90;2.40;;;22.10;74.90;;;;;;5074331;28;20120;-67
2023/05/07 08:54:47;;;;;;;8.50;2.15;;;22.20;68.90;;;;;;5073886;28;20031;-70
2023/05/07 08:57:13;;;;;;;;;;;22.30;69.20;;;;;;5074495;28;20111;-68
2023/05/07 08:59:40;;;;;;;3.78;2.10;;;22.40;68.30;;;;;;5070759;28;20007;-70
2023/05/07 09:02:10;;;;;;;3.80;2.50;;;22.40;69.80;;;;;;5071227;28;20454;-70
2023/05/07 09:04:36;;;;;;;6.28;2.60;;;22.50;69.30;;;;;;5072428;28;20355;-71
2023/05/07 09:07:05;;;;;;;5.60;2.47;;;22.60;70.80;;;;;;5073981;28;20040;-68
2023/05/07 09:09:32;;;;;;;2.67;2.47;;;22.60;69.80;;;;;;5073853;28;20067;-67
2023/05/07 09:12:02;;;;;;;4.88;2.72;;;22.70;69.30;;;;;;5073930;28;20460;-67
2023/05/07 09:14:28;;;;;;;4.78;2.35;;;22.70;68.60;;;;;;5073450;28;20016;-67
2023/05/07 09:16:53;;;;;;;2.33;2.13;;;22.80;66.40;;;;;;5073849;28;20103;-67
2023/05/07 09:19:27;;;;;;;3.15;2.50;;;22.80;67.40;;;;;;5072487;28;20055;-67
2023/05/07 09:22:01;;;;;;;8.05;2.72;;;22.90;65.70;;;;;;5073585;28;20029;-67
2023/05/07 09:24:28;;;;;;;4.10;2.30;;;23.00;67.80;;;;;;5073512;28;20020;-67
2023/05/07 09:26:55;;;;;;;3.47;2.70;;;23.00;67.10;;;;;;5073669;28;20532;-67
2023/05/07 09:29:21;;;;;;;5.70;2.63;;;23.20;68.00;;;;;;5072936;28;20474;-68
2023/05/07 09:31:46;;;;;;;6.03;2.63;;;23.30;68.40;;;;;;5073470;28;20032;-67
2023/05/07 09:34:12;;;;;;;2.88;2.22;;;23.40;67.60;;;;;;5074319;28;20048;-66
2023/05/07 09:36:38;;;;;;;4.32;2.03;;;23.40;65.50;;;;;;5075552;28;20025;-67
2023/05/07 09:39:04;;;;;;;5.22;2.45;;;23.50;64.10;;;;;;5072969;28;20051;-67
2023/05/07 09:41:32;;;;;;;3.53;2.50;;;23.50;64.20;;;;;;5069989;28;20113;-67
2023/05/07 09:44:00;;;;;;;4.78;2.33;;;23.60;66.30;;;;;;5070715;28;20032;-70
2023/05/07 09:46:29;;;;;;;25.27;3.15;;;23.70;62.40;;;;;;5072878;28;20154;-71
2023/05/07 09:48:58;;;;;;;3.92;2.15;;;23.80;61.40;;;;;;5072891;28;20025;-70
2023/05/07 09:51:48;;;;;;;5.55;2.60;;;23.80;62.20;;;;;;5072819;28;20398;-71
2023/05/07 09:54:14;;;;;;;3.88;2.88;;;23.90;63.60;;;;;;5072560;28;20025;-72
2023/05/07 09:56:43;;;;;;;4.32;2.70;;;24.00;62.70;;;;;;5072766;28;20028;-69
2023/05/07 09:59:12;;;;;;;4.25;2.58;;;24.10;63.60;;;;;;5073198;28;20445;-67
2023/05/07 10:01:40;;;;;;;7.45;2.70;;;24.10;64.80;;;;;;5073536;28;20040;-67
2023/05/07 10:04:08;;;;;;;3.25;1.90;;;24.20;63.50;;;;;;5073463;28;20035;-67
2023/05/07 10:06:35;;;;;;;3.20;1.95;;;24.30;56.40;;;;;;5073446;28;20441;-67
2023/05/07 10:09:02;;;;;;;8.00;1.70;;;24.30;53.10;;;;;;5073480;28;20484;-67
2023/05/07 10:11:28;;;;;;;2.28;1.40;;;24.40;56.10;;;;;;5073286;28;20036;-67
2023/05/07 10:14:23;;;;;;;4.53;1.52;;;24.40;52.90;;;;;;5073350;28;20025;-68
2023/05/07 10:17:16;;;;;;;2.92;1.60;;;24.40;52.40;;;;;;5073018;28;20079;-67
2023/05/07 10:20:14;;;;;;;2.22;1.75;;;24.40;50.60;;;;;;5073179;28;20386;-67
2023/05/07 10:23:28;;;;;;;2.53;1.30;;;24.50;50.40;;;;;;5058329;28;20519;-67
2023/05/07 10:25:59;;;;;;;2.40;1.40;;;24.40;50.70;;;;;;5030153;28;20119;-67
2023/05/07 10:29:12;;;;;;;2.17;1.70;;;24.50;50.10;;;;;;5067954;28;20139;-66
2023/05/07 10:32:10;;;;;;;4.53;1.60;;;24.50;49.50;;;;;;5027564;28;20056;-67
2023/05/07 10:35:25;;;;;;;3.53;1.60;;;24.60;49.70;;;;;;5072251;28;20051;-68
2023/05/07 10:37:57;;;;;;;3.55;1.70;;;24.60;50.80;;;;;;5072205;28;20028;-70
2023/05/07 10:40:23;;;;;;;4.03;1.88;;;24.70;49.40;;;;;;5071488;28;20374;-72
2023/05/07 10:43:00;;;;;;;2.10;1.58;;;24.70;50.40;;;;;;5072669;28;20058;-69
2023/05/07 10:45:26;;;;;;;5.10;2.42;;;24.70;50.80;;;;;;5071539;28;20363;-70
2023/05/07 10:48:15;;;;;;;4.93;2.00;;;24.80;50.10;;;;;;5072867;28;20377;-68
2023/05/07 10:50:43;;;;;;;8.43;3.00;;;24.80;50.80;;;;;;5072596;28;20032;-71
2023/05/07 10:53:20;;;;;;;3.08;1.85;;;24.90;49.90;;;;;;5073144;28;20029;-71
2023/05/07 10:55:48;;;;;;;3.10;1.75;;;24.90;48.20;;;;;;5073624;28;20050;-69
2023/05/07 10:58:28;;;;;;;4.72;2.20;;;24.90;48.80;;;;;;5072650;28;20709;-68
2023/05/07 11:00:58;;;;;;;5.43;2.00;;;24.90;50.30;;;;;;5076063;28;20039;-68
2023/05/07 11:03:25;;;;;;;4.25;2.05;;;25.00;49.40;;;;;;5076238;28;20035;-71
2023/05/07 11:06:13;;;;;;;3.33;1.70;;;25.00;48.20;;;;;;5076118;28;20028;-68
2023/05/07 11:08:58;;;;;;;3.85;1.98;;;25.10;47.00;;;;;;5076155;28;20478;-68
2023/05/07 11:11:47;;;;;;;2.53;1.65;;;25.00;47.00;;;;;;5076140;28;20487;-69
2023/05/07 11:14:14;;;;;;;2.95;2.35;;;24.90;46.00;;;;;;5076378;28;20489;-70
2023/05/07 11:16:43;;;;;;;5.75;1.73;;;24.90;47.30;;;;;;5075899;28;20040;-68
2023/05/07 11:19:09;;;;;;;3.67;2.20;;;24.90;46.30;;;;;;5076235;28;20490;-69
2023/05/07 11:21:41;;;;;;;3.03;1.80;;;24.90;47.40;;;;;;5076061;28;20027;-68
2023/05/07 11:24:10;;;;;;;4.45;2.05;;;24.90;49.30;;;;;;5075944;28;20032;-69
2023/05/07 11:26:48;;;;;;;2.67;1.50;;;25.00;49.80;;;;;;5076078;28;20027;-70
2023/05/07 11:29:19;;;;;;;2.92;1.98;;;25.10;46.70;;;;;;5073376;28;20064;-68
2023/05/07 11:31:49;;;;;;;3.05;1.73;;;25.00;46.50;;;;;;5071492;28;20382;-68
2023/05/07 11:34:20;;;;;;;3.00;1.60;;;25.00;47.00;;;;;;5074971;28;20107;-69
2023/05/07 11:36:48;;;;;;;9.93;1.73;;;25.00;46.90;;;;;;5075738;28;20035;-67
2023/05/07 11:39:33;;;;;;;1.77;1.60;;;25.00;46.40;;;;;;5076054;28;20141;-68
2023/05/07 11:42:00;;;;;;;3.05;1.60;;;25.00;47.90;;;;;;5075369;28;20102;-69
2023/05/07 11:44:39;;;;;;;4.63;1.83;;;25.10;44.30;;;;;;5075695;28;20021;-70
2023/05/07 11:47:05;;;;;;;3.75;1.80;;;25.00;45.10;;;;;;5076394;28;20431;-67
2023/05/07 11:49:31;;;;;;;3.88;1.40;;;25.10;44.50;;;;;;5076424;28;20048;-67
2023/05/07 11:51:57;;;;;;;4.68;2.00;;;25.00;44.00;;;;;;5075895;28;20029;-67
2023/05/07 11:54:23;;;;;;;1.95;1.60;;;25.00;44.50;;;;;;5073161;28;20029;-68
2023/05/07 11:56:59;;;;;;;2.05;1.30;;;25.00;42.90;;;;;;5073363;28;20103;-67
2023/05/07 11:59:25;;;;;;;2.70;1.40;;;24.90;44.10;;;;;;5074009;28;20031;-67
2023/05/07 12:03:07;;;;;;;2.90;1.30;;;25.00;41.10;;;;;;5075599;28;20020;-67
2023/05/07 12:05:32;;;;;;;2.65;1.50;;;25.00;42.50;;;;;;5065182;28;20181;-67
2023/05/07 12:08:29;;;;;;;1.40;1.30;;;25.10;42.20;;;;;;5075560;28;20063;-67
2023/05/07 12:11:04;;;;;;;2.85;1.60;;;25.10;41.90;;;;;;5075484;28;20386;-67
2023/05/07 12:13:53;;;;;;;2.40;1.63;;;25.10;43.80;;;;;;5075295;28;20056;-67
2023/05/07 12:16:54;;;;;;;3.05;1.60;;;25.10;44.40;;;;;;5075072;28;20021;-67
2023/05/07 12:19:21;;;;;;;4.32;1.40;;;25.10;42.00;;;;;;5053078;28;20046;-67
2023/05/07 12:22:10;;;;;;;5.00;1.65;;;25.10;42.80;;;;;;5074738;28;20100;-67
2023/05/07 12:24:56;;;;;;;3.97;1.65;;;25.10;44.20;;;;;;5043976;28;20429;-71
2023/05/07 12:27:22;;;;;;;4.18;1.70;;;25.20;44.60;;;;;;5075158;28;20430;-67
2023/05/07 12:29:50;;;;;;;2.58;1.67;;;25.20;43.10;;;;;;5074982;28;20019;-68
2023/05/07 12:32:17;;;;;;;3.20;1.60;;;25.20;44.80;;;;;;5074914;28;20041;-70
2023/05/07 12:34:44;;;;;;;2.70;1.80;;;25.20;44.80;;;;;;5074826;28;20020;-67
2023/05/07 12:37:10;;;;;;;2.72;1.88;;;25.10;45.20;;;;;;5074629;28;20034;-68
2023/05/07 12:39:36;;;;;;;6.57;1.95;;;25.10;44.60;;;;;;5074726;28;20016;-69
2023/05/07 12:42:02;;;;;;;2.42;1.80;;;25.10;42.50;;;;;;5074501;28;20474;-68
2023/05/07 12:44:32;;;;;;;2.90;1.40;;;25.10;39.30;;;;;;5074470;28;20020;-69
2023/05/07 12:47:01;;;;;;;2.92;1.83;;;24.90;38.70;;;;;;5074421;28;20071;-69
2023/05/07 12:49:26;;;;;;;4.18;1.73;;;24.90;39.60;;;;;;5074294;28;20073;-68
2023/05/07 12:51:53;;;;;;;3.72;1.80;;;24.80;41.10;;;;;;5074211;28;20029;-68
2023/05/07 12:54:33;;;;;;;2.85;2.25;;;24.80;41.70;;;;;;5074353;28;20549;-67
2023/05/07 12:57:08;;;;;;;3.65;2.08;;;24.70;42.30;;;;;;5074318;28;20028;-68
2023/05/07 12:59:40;;;;;;;2.97;2.10;;;24.70;42.80;;;;;;5074187;28;20742;-67
2023/05/07 13:02:06;;;;;;;3.20;2.10;;;24.70;44.30;;;;;;5074352;28;20081;-68
2023/05/07 13:04:32;;;;;;;3.00;2.20;;;24.70;45.60;;;;;;5073926;28;20486;-68
2023/05/07 13:06:59;;;;;;;3.97;2.50;;;24.70;45.20;;;;;;5074225;28;20027;-67
2023/05/07 13:09:25;;;;;;;2.45;1.90;;;24.80;46.80;;;;;;5074123;28;20123;-67
2023/05/07 13:11:51;;;;;;;5.75;2.30;;;24.80;47.20;;;;;;5073879;28;20068;-67
2023/05/07 13:14:17;;;;;;;2.60;2.10;;;24.80;48.20;;;;;;5073689;28;20017;-66
2023/05/07 13:16:43;;;;;;;5.80;2.30;;;24.80;48.90;;;;;;5073058;28;20051;-67
2023/05/07 13:19:08;;;;;;;5.20;2.10;;;24.80;50.00;;;;;;5073743;28;20028;-67
2023/05/07 13:21:34;;;;;;;5.10;2.40;;;24.80;49.90;;;;;;5073951;28;20078;-67
2023/05/07 13:24:00;;;;;;;3.67;2.40;;;24.80;51.00;;;;;;5073590;28;20044;-67
2023/05/07 13:26:26;;;;;;;2.78;2.25;;;24.80;52.30;;;;;;5073762;28;20402;-67
2023/05/07 13:28:55;;;;;;;2.25;2.05;;;24.80;52.50;;;;;;5074328;28;20020;-66
2023/05/07 13:31:21;;;;;;;2.42;2.00;;;24.70;47.90;;;;;;5074240;28;20434;-68
2023/05/07 13:33:47;;;;;;;4.85;2.30;;;24.70;48.10;;;;;;5074149;28;20052;-67
2023/05/07 13:36:12;;;;;;;9.88;3.15;;;24.60;49.70;;;;;;5074059;28;20028;-67
2023/05/07 13:38:39;;;;;;;5.72;3.00;;;24.60;54.30;;;;;;5072539;28;20020;-67
2023/05/07 13:45:29;;;;;;;4.32;3.20;;;24.50;56.80;;;;;;4991824;28;20121;-67
2023/05/07 13:48:44;;;;;;;4.88;3.45;;;24.40;58.00;;;;;;5010648;28;20112;-67
2023/05/07 13:55:17;;;;;;;5.53;3.45;;;24.30;58.80;;;;;;4896498;29;20116;-67
2023/05/07 13:58:06;;;;;;;3.45;3.05;;;24.30;59.40;;;;;;4898313;29;20043;-67